Time;durP1;ratioP1;P1;durP2;ratioP2;P2;SDS_P1;SDS_P2;PMS_P1;PMS_P2;Temp;Humidity;BMP_temperature;BMP_pressure;BME280_temperature;BME280_humidity;BME280_pressure;Samples;Min_cycle;Max_cycle;Signal;HPM_P1;HPM_P2
2023/07/28 00:02:08;;;;;;;2.40;2.20;;;18.60;99.90;;;;;;5041577;28;20944;-69
2023/07/28 00:04:37;;;;;;;3.63;2.00;;;18.70;99.90;;;;;;5041458;28;20454;-68
2023/07/28 00:07:03;;;;;;;1.90;1.80;;;18.70;99.90;;;;;;5041046;28;20572;-69
2023/07/28 00:09:30;;;;;;;3.40;1.80;;;18.70;99.90;;;;;;5041071;28;20524;-67
2023/07/28 00:11:58;;;;;;;1.93;1.73;;;18.70;99.90;;;;;;5040192;28;20450;-69
2023/07/28 00:14:25;;;;;;;1.80;1.70;;;18.80;99.90;;;;;;5040110;28;20454;-68
2023/07/28 00:16:52;;;;;;;4.73;2.00;;;18.80;99.90;;;;;;5040151;28;20442;-69
2023/07/28 00:19:20;;;;;;;3.30;1.90;;;18.80;99.90;;;;;;5038792;28;20472;-69
2023/07/28 00:21:49;;;;;;;1.60;1.50;;;18.80;99.90;;;;;;5035347;28;20991;-68
2023/07/28 00:24:16;;;;;;;3.00;1.80;;;18.80;99.90;;;;;;5036456;28;20483;-69
2023/07/28 00:26:43;;;;;;;4.60;1.97;;;18.80;99.90;;;;;;5037700;28;20489;-69
2023/07/28 00:29:10;;;;;;;1.77;1.67;;;18.80;99.90;;;;;;5036858;28;20453;-68
2023/07/28 00:31:38;;;;;;;3.30;1.70;;;18.80;99.90;;;;;;5037013;28;20549;-68
2023/07/28 00:34:05;;;;;;;2.40;2.20;;;18.80;99.90;;;;;;5037513;28;20450;-68
2023/07/28 00:36:33;;;;;;;4.53;1.90;;;18.80;99.90;;;;;;5036276;28;20454;-69
2023/07/28 00:39:03;;;;;;;2.20;1.80;;;18.80;99.90;;;;;;5037795;28;20457;-69
2023/07/28 00:41:30;;;;;;;2.63;2.43;;;18.80;99.90;;;;;;5037095;28;20475;-69
2023/07/28 00:43:58;;;;;;;4.00;2.37;;;18.70;99.90;;;;;;5037838;28;20496;-69
2023/07/28 00:46:25;;;;;;;2.13;1.47;;;18.70;99.90;;;;;;5037282;28;20505;-69
2023/07/28 00:48:54;;;;;;;2.23;1.70;;;18.80;99.90;;;;;;5038983;28;20455;-69
2023/07/28 00:51:21;;;;;;;2.13;1.90;;;18.80;99.90;;;;;;5039190;28;21019;-69
2023/07/28 00:53:49;;;;;;;4.50;2.10;;;18.80;99.90;;;;;;5039080;28;20446;-69
2023/07/28 00:56:17;;;;;;;2.10;1.90;;;18.80;99.90;;;;;;5038529;28;20446;-69
2023/07/28 00:58:44;;;;;;;3.97;2.17;;;18.90;99.90;;;;;;5038486;28;20442;-69
2023/07/28 01:01:11;;;;;;;4.13;2.30;;;18.90;99.90;;;;;;5036651;28;20470;-68
2023/07/28 01:03:38;;;;;;;3.20;2.20;;;18.80;99.90;;;;;;5038263;28;20455;-68
2023/07/28 01:06:15;;;;;;;2.87;2.43;;;18.80;99.90;;;;;;5037994;28;20454;-69
2023/07/28 01:08:48;;;;;;;3.00;1.93;;;18.80;99.90;;;;;;5041975;28;20474;-69
2023/07/28 01:11:16;;;;;;;3.40;2.37;;;18.80;99.90;;;;;;5053280;28;20489;-69
2023/07/28 01:13:43;;;;;;;3.80;2.80;;;18.80;99.90;;;;;;5045881;28;20454;-69
2023/07/28 01:16:10;;;;;;;2.40;2.20;;;18.80;99.90;;;;;;5046485;28;20454;-69
2023/07/28 01:18:37;;;;;;;2.87;2.67;;;18.80;99.90;;;;;;5045286;28;20446;-69
2023/07/28 01:21:07;;;;;;;2.60;2.37;;;18.70;99.90;;;;;;5044202;28;20474;-68
2023/07/28 01:23:41;;;;;;;2.93;2.70;;;18.70;99.90;;;;;;5044338;28;20446;-69
2023/07/28 01:26:11;;;;;;;3.33;3.03;;;18.70;99.90;;;;;;5041758;28;20435;-69
2023/07/28 01:28:42;;;;;;;3.70;2.80;;;18.70;99.90;;;;;;5042832;28;20557;-68
2023/07/28 01:31:10;;;;;;;3.30;3.00;;;18.70;99.90;;;;;;5041958;28;20530;-68
2023/07/28 01:33:37;;;;;;;5.83;3.30;;;18.80;99.90;;;;;;5042078;28;20450;-68
2023/07/28 01:36:04;;;;;;;3.07;2.87;;;18.80;99.90;;;;;;5040696;28;20836;-69
2023/07/28 01:38:31;;;;;;;3.60;3.30;;;18.80;99.90;;;;;;5040466;28;20450;-69
2023/07/28 01:40:58;;;;;;;3.13;2.93;;;18.80;99.90;;;;;;5039989;28;20482;-68
2023/07/28 01:43:25;;;;;;;3.27;2.97;;;18.80;99.90;;;;;;5040364;28;20452;-68
2023/07/28 01:45:53;;;;;;;3.07;2.77;;;18.80;99.90;;;;;;5041893;28;20458;-69
2023/07/28 01:48:20;;;;;;;3.77;3.27;;;18.80;99.90;;;;;;5043900;28;21007;-69
2023/07/28 01:50:47;;;;;;;3.70;3.40;;;18.80;99.90;;;;;;5042067;28;20482;-68
2023/07/28 01:53:13;;;;;;;3.07;2.87;;;18.80;99.90;;;;;;5040026;28;20451;-68
2023/07/28 01:55:40;;;;;;;2.83;2.63;;;18.80;99.90;;;;;;5039739;28;20454;-69
2023/07/28 01:58:07;;;;;;;6.77;3.20;;;18.80;99.90;;;;;;5038669;28;20449;-69
2023/07/28 02:00:34;;;;;;;3.30;3.00;;;18.90;99.90;;;;;;5037932;28;20478;-68
2023/07/28 02:03:03;;;;;;;3.30;3.10;;;18.90;99.90;;;;;;5038088;28;20955;-68
2023/07/28 02:05:30;;;;;;;4.00;3.50;;;18.90;99.90;;;;;;5036453;28;20749;-69
2023/07/28 02:07:56;;;;;;;5.03;3.43;;;18.80;99.90;;;;;;5037878;28;20478;-69
2023/07/28 02:10:24;;;;;;;5.27;3.60;;;18.80;99.90;;;;;;5038356;28;20477;-68
2023/07/28 02:12:51;;;;;;;4.03;3.63;;;18.90;99.90;;;;;;5037803;28;20450;-68
2023/07/28 02:15:18;;;;;;;4.60;4.20;;;18.90;99.90;;;;;;5037900;28;20485;-69
2023/07/28 02:17:44;;;;;;;3.60;3.30;;;18.90;99.90;;;;;;5037542;28;20442;-69
2023/07/28 02:20:15;;;;;;;4.50;3.80;;;18.90;99.90;;;;;;5036472;28;20475;-68
2023/07/28 02:22:42;;;;;;;4.57;4.10;;;18.90;99.90;;;;;;5037801;28;20450;-68
2023/07/28 02:25:09;;;;;;;4.30;4.00;;;18.90;99.90;;;;;;5041195;28;20451;-69
2023/07/28 02:27:36;;;;;;;7.17;4.33;;;18.90;99.90;;;;;;5042682;28;20505;-69
2023/07/28 02:30:04;;;;;;;4.30;4.00;;;18.90;99.90;;;;;;5043340;28;20475;-68
2023/07/28 02:32:31;;;;;;;7.23;4.30;;;18.90;99.90;;;;;;5042741;28;20447;-69
2023/07/28 02:34:57;;;;;;;5.87;4.03;;;18.90;99.90;;;;;;5040372;28;20504;-69
2023/07/28 02:37:26;;;;;;;4.63;4.33;;;18.90;99.90;;;;;;5039859;28;20462;-69
2023/07/28 02:39:53;;;;;;;3.70;3.43;;;18.90;99.90;;;;;;5039810;28;20545;-68
2023/07/28 02:42:20;;;;;;;4.77;3.70;;;18.90;99.90;;;;;;5037656;28;20587;-68
2023/07/28 02:44:46;;;;;;;4.40;4.10;;;18.90;99.90;;;;;;5037901;28;20454;-69
2023/07/28 02:47:13;;;;;;;4.27;3.90;;;18.90;99.90;;;;;;5037880;28;20819;-69
2023/07/28 02:49:42;;;;;;;4.13;3.73;;;18.90;99.90;;;;;;5037472;28;20987;-69
2023/07/28 02:52:09;;;;;;;3.67;3.37;;;18.90;99.90;;;;;;5037672;28;20481;-69
2023/07/28 02:54:37;;;;;;;3.70;3.47;;;18.80;99.90;;;;;;5037353;28;20809;-69
2023/07/28 02:57:04;;;;;;;3.77;2.90;;;18.90;99.90;;;;;;5037037;28;20453;-69
2023/07/28 02:59:31;;;;;;;3.50;2.90;;;18.80;99.90;;;;;;5036818;28;20455;-68
2023/07/28 03:01:58;;;;;;;3.33;3.13;;;18.90;99.90;;;;;;5036434;28;20447;-69
2023/07/28 03:04:24;;;;;;;3.10;2.90;;;18.90;99.90;;;;;;5037542;28;20488;-69
2023/07/28 03:06:51;;;;;;;3.93;2.90;;;18.80;99.90;;;;;;5037936;28;20473;-69
2023/07/28 03:09:18;;;;;;;3.20;3.00;;;18.90;99.90;;;;;;5035856;28;20490;-69
2023/07/28 03:11:46;;;;;;;3.17;2.60;;;18.90;99.90;;;;;;5036050;28;20470;-68
2023/07/28 03:14:13;;;;;;;3.73;2.67;;;18.90;99.90;;;;;;5036405;28;20473;-69
2023/07/28 03:16:41;;;;;;;3.00;2.80;;;18.80;99.90;;;;;;5037099;28;20430;-69
2023/07/28 03:19:07;;;;;;;4.83;2.90;;;18.90;99.90;;;;;;5035865;28;20446;-69
2023/07/28 03:21:34;;;;;;;4.83;2.80;;;18.90;99.90;;;;;;5036948;28;20477;-68
2023/07/28 03:24:01;;;;;;;3.00;2.80;;;18.80;99.90;;;;;;5035447;28;20458;-69
2023/07/28 03:26:28;;;;;;;2.93;2.70;;;18.90;99.90;;;;;;5040296;28;20637;-69
2023/07/28 03:28:56;;;;;;;2.67;2.50;;;18.90;99.90;;;;;;5050916;28;20494;-68
2023/07/28 03:31:23;;;;;;;2.10;2.00;;;18.90;99.90;;;;;;5043340;28;20474;-68
2023/07/28 03:33:50;;;;;;;3.13;2.53;;;18.90;99.90;;;;;;5041463;28;20446;-68
2023/07/28 03:36:17;;;;;;;2.40;2.17;;;18.80;99.90;;;;;;5039848;28;20446;-69
2023/07/28 03:38:44;;;;;;;2.70;2.43;;;18.80;99.90;;;;;;5039223;28;20582;-69
2023/07/28 03:41:11;;;;;;;2.10;1.90;;;18.90;99.90;;;;;;5038444;28;20475;-68
2023/07/28 03:43:37;;;;;;;6.50;2.30;;;18.80;99.90;;;;;;5038240;28;20458;-69
2023/07/28 03:46:06;;;;;;;2.63;2.43;;;18.90;99.90;;;;;;5037426;28;20450;-69
2023/07/28 03:48:32;;;;;;;2.17;2.07;;;18.80;99.90;;;;;;5036926;28;20482;-69
2023/07/28 03:50:59;;;;;;;3.30;2.03;;;18.80;99.90;;;;;;5036979;28;20467;-68
2023/07/28 03:53:26;;;;;;;4.20;2.10;;;18.80;99.90;;;;;;5036560;28;20451;-69
2023/07/28 03:55:53;;;;;;;2.00;1.80;;;18.80;99.90;;;;;;5039376;28;20454;-69
2023/07/28 03:58:20;;;;;;;2.20;2.10;;;18.80;99.90;;;;;;5040945;28;20449;-69
2023/07/28 04:00:48;;;;;;;4.83;2.03;;;18.80;99.90;;;;;;5040775;28;20847;-68
2023/07/28 04:03:16;;;;;;;2.00;1.77;;;18.80;99.90;;;;;;5040204;28;20454;-68
2023/07/28 04:05:43;;;;;;;2.00;1.90;;;18.80;99.90;;;;;;5044713;28;20446;-69
2023/07/28 04:08:09;;;;;;;2.30;2.20;;;18.80;99.90;;;;;;5045395;28;20489;-69
2023/07/28 04:10:36;;;;;;;2.53;2.43;;;18.90;99.90;;;;;;5042792;28;20470;-68
2023/07/28 04:13:03;;;;;;;3.07;2.47;;;18.90;99.90;;;;;;5042909;28;20454;-68
2023/07/28 04:15:30;;;;;;;2.30;2.10;;;18.90;99.90;;;;;;5041414;28;20458;-69
2023/07/28 04:17:56;;;;;;;4.43;2.57;;;18.90;99.90;;;;;;5042307;28;20446;-69
2023/07/28 04:20:25;;;;;;;3.43;2.67;;;18.90;99.90;;;;;;5041168;28;20474;-68
2023/07/28 04:22:52;;;;;;;3.40;2.47;;;18.90;99.90;;;;;;5040455;28;20451;-68
2023/07/28 04:25:18;;;;;;;4.33;1.90;;;18.90;99.90;;;;;;5040584;28;20451;-69
2023/07/28 04:27:45;;;;;;;2.33;1.90;;;18.90;99.90;;;;;;5039507;28;20462;-69
2023/07/28 04:30:13;;;;;;;1.80;1.70;;;18.90;99.90;;;;;;5039905;28;20474;-68
2023/07/28 04:32:40;;;;;;;1.90;1.60;;;18.90;99.90;;;;;;5039715;28;20451;-68
2023/07/28 04:35:07;;;;;;;1.63;1.53;;;18.90;99.90;;;;;;5038614;28;20818;-68
2023/07/28 04:37:36;;;;;;;1.60;1.50;;;18.90;99.90;;;;;;5039138;28;20454;-69
2023/07/28 04:40:03;;;;;;;1.77;1.63;;;19.00;99.90;;;;;;5039654;28;20477;-68
2023/07/28 04:42:30;;;;;;;1.60;1.50;;;19.00;99.90;;;;;;5039423;28;20454;-68
2023/07/28 04:44:57;;;;;;;2.87;1.70;;;19.10;99.90;;;;;;5038745;28;20818;-69
2023/07/28 04:47:23;;;;;;;3.23;1.70;;;19.10;99.90;;;;;;5038836;28;20450;-69
2023/07/28 04:49:50;;;;;;;1.73;1.63;;;19.10;99.90;;;;;;5038251;28;20486;-68
2023/07/28 04:52:17;;;;;;;2.70;1.70;;;19.10;99.90;;;;;;5038465;28;20446;-69
2023/07/28 04:54:45;;;;;;;2.13;1.80;;;19.10;99.90;;;;;;5039009;28;20462;-69
2023/07/28 04:57:13;;;;;;;5.33;2.00;;;19.20;99.90;;;;;;5038621;28;20458;-69
2023/07/28 04:59:40;;;;;;;3.20;1.90;;;19.20;99.90;;;;;;5039120;28;20815;-67
2023/07/28 05:02:07;;;;;;;2.30;2.03;;;19.20;99.90;;;;;;5038918;28;20956;-69
2023/07/28 05:04:36;;;;;;;2.63;1.90;;;19.20;99.90;;;;;;5038290;28;20452;-68
2023/07/28 05:07:03;;;;;;;2.40;1.63;;;19.20;99.90;;;;;;5038288;28;20458;-69
2023/07/28 05:09:30;;;;;;;2.63;1.80;;;19.30;99.90;;;;;;5038800;28;20482;-70
2023/07/28 05:11:58;;;;;;;1.83;1.73;;;19.30;99.90;;;;;;5038685;28;20453;-69
2023/07/28 05:14:25;;;;;;;3.37;2.00;;;19.30;99.90;;;;;;5037731;28;20465;-69
2023/07/28 05:16:51;;;;;;;2.10;1.90;;;19.30;99.90;;;;;;5038475;28;20497;-69
2023/07/28 05:19:18;;;;;;;2.50;1.40;;;19.30;99.90;;;;;;5038509;28;20442;-68
2023/07/28 05:21:45;;;;;;;1.77;1.63;;;19.30;99.90;;;;;;5047466;28;21006;-68
2023/07/28 05:24:12;;;;;;;1.67;1.57;;;19.30;99.90;;;;;;5044846;28;20450;-68
2023/07/28 05:26:38;;;;;;;2.07;1.40;;;19.30;99.90;;;;;;5041469;28;20462;-68
2023/07/28 05:29:06;;;;;;;4.60;1.67;;;19.40;99.90;;;;;;5041537;28;20486;-69
2023/07/28 05:31:33;;;;;;;2.67;1.67;;;19.40;99.90;;;;;;5041120;28;20474;-69
2023/07/28 05:34:00;;;;;;;2.20;1.90;;;19.40;99.90;;;;;;5040869;28;20454;-68
2023/07/28 05:36:28;;;;;;;2.23;1.80;;;19.50;99.90;;;;;;5044668;28;20453;-69
2023/07/28 05:38:56;;;;;;;2.50;1.70;;;19.50;99.90;;;;;;5047127;28;20893;-69
2023/07/28 05:41:23;;;;;;;6.40;2.83;;;19.50;99.90;;;;;;5047495;28;20463;-68
2023/07/28 05:43:50;;;;;;;2.20;2.10;;;19.50;99.90;;;;;;5046884;28;20450;-69
2023/07/28 05:46:18;;;;;;;2.80;1.93;;;19.50;99.90;;;;;;5054184;28;20501;-69
2023/07/28 05:48:45;;;;;;;2.77;2.23;;;19.50;99.90;;;;;;5046773;28;20915;-69
2023/07/28 05:51:12;;;;;;;2.50;2.17;;;19.50;99.90;;;;;;5046118;28;20462;-68
2023/07/28 05:53:39;;;;;;;1.93;1.83;;;19.50;99.90;;;;;;5044295;28;20458;-69
2023/07/28 05:56:05;;;;;;;2.10;1.87;;;19.60;99.90;;;;;;5043201;28;20453;-69
2023/07/28 05:58:32;;;;;;;1.73;1.63;;;19.50;99.90;;;;;;5041281;28;20955;-67
2023/07/28 06:00:59;;;;;;;2.00;1.80;;;19.50;99.90;;;;;;5042083;28;20463;-68
2023/07/28 06:03:29;;;;;;;3.13;1.77;;;19.50;99.90;;;;;;5041808;28;20458;-68
2023/07/28 06:05:55;;;;;;;2.63;2.43;;;19.50;99.90;;;;;;5040700;28;20466;-69
2023/07/28 06:08:22;;;;;;;2.07;1.97;;;19.50;99.90;;;;;;5039830;28;20509;-69
2023/07/28 06:10:49;;;;;;;2.57;2.37;;;19.50;99.90;;;;;;5040856;28;20473;-68
2023/07/28 06:13:15;;;;;;;2.13;2.03;;;19.60;99.90;;;;;;5040657;28;20457;-69
2023/07/28 06:15:43;;;;;;;2.80;2.60;;;19.60;99.90;;;;;;5040314;28;20836;-69
2023/07/28 06:18:10;;;;;;;2.93;2.20;;;19.60;99.90;;;;;;5038396;28;20461;-68
2023/07/28 06:20:38;;;;;;;2.70;2.33;;;19.70;99.90;;;;;;5039816;28;20489;-68
2023/07/28 06:23:05;;;;;;;2.63;2.43;;;19.80;99.90;;;;;;5042201;28;20450;-69
2023/07/28 06:25:32;;;;;;;2.07;1.83;;;19.90;99.90;;;;;;5042796;28;20863;-68
2023/07/28 06:27:59;;;;;;;2.17;2.07;;;19.90;99.90;;;;;;5041461;28;20450;-68
2023/07/28 06:30:25;;;;;;;2.37;2.20;;;19.90;99.90;;;;;;5038588;28;20506;-68
2023/07/28 06:32:52;;;;;;;2.10;2.00;;;19.90;99.90;;;;;;5039489;28;20451;-69
2023/07/28 06:35:19;;;;;;;2.17;1.97;;;19.90;99.90;;;;;;5039750;28;20450;-68
2023/07/28 06:37:47;;;;;;;1.90;1.80;;;19.90;99.90;;;;;;5021168;28;20504;-69
2023/07/28 06:40:14;;;;;;;1.93;1.77;;;19.90;99.90;;;;;;5035965;28;20833;-69
2023/07/28 06:42:41;;;;;;;2.90;2.60;;;19.90;99.90;;;;;;5037369;28;20458;-69
2023/07/28 06:45:08;;;;;;;2.73;2.53;;;20.00;99.90;;;;;;5035845;28;20442;-69
2023/07/28 06:47:35;;;;;;;3.47;3.17;;;20.00;99.90;;;;;;5035529;28;20820;-69
2023/07/28 06:50:02;;;;;;;2.60;2.40;;;20.00;99.90;;;;;;5035409;28;20486;-68
2023/07/28 06:52:29;;;;;;;4.10;2.80;;;20.00;99.90;;;;;;5036268;28;20557;-69
2023/07/28 06:54:57;;;;;;;4.80;2.90;;;19.90;99.90;;;;;;5035902;28;20450;-69
2023/07/28 06:57:24;;;;;;;4.67;3.30;;;19.90;99.90;;;;;;5035622;28;20454;-69
2023/07/28 06:59:51;;;;;;;3.43;3.13;;;19.90;99.90;;;;;;5035946;28;20477;-68
2023/07/28 07:02:18;;;;;;;4.57;3.47;;;19.90;99.90;;;;;;5034827;28;20481;-69
2023/07/28 07:04:45;;;;;;;6.43;3.80;;;20.00;99.90;;;;;;5036369;28;20451;-68
2023/07/28 07:07:12;;;;;;;3.67;3.37;;;19.90;99.90;;;;;;5034611;28;20972;-69
2023/07/28 07:09:40;;;;;;;4.37;3.63;;;20.00;99.90;;;;;;5035945;28;20486;-68
2023/07/28 07:12:10;;;;;;;4.10;3.30;;;20.00;99.90;;;;;;5036282;28;20474;-69
2023/07/28 07:14:36;;;;;;;4.30;3.63;;;20.00;99.90;;;;;;5036197;28;20455;-68
2023/07/28 07:17:05;;;;;;;4.67;4.27;;;20.00;99.90;;;;;;5036215;28;20453;-68
2023/07/28 07:19:32;;;;;;;5.43;4.30;;;20.00;99.90;;;;;;5035857;28;20461;-69
2023/07/28 07:21:59;;;;;;;3.87;3.57;;;20.00;99.90;;;;;;5035198;28;20474;-68
2023/07/28 07:24:26;;;;;;;5.73;3.60;;;20.10;99.90;;;;;;5035806;28;20454;-69
2023/07/28 07:26:53;;;;;;;5.70;4.00;;;20.20;99.90;;;;;;5036452;28;20450;-69
2023/07/28 07:29:21;;;;;;;4.77;3.77;;;20.10;99.90;;;;;;5036526;28;20481;-69
2023/07/28 07:31:48;;;;;;;5.03;4.47;;;20.20;99.90;;;;;;5040266;28;20470;-68
2023/07/28 07:34:15;;;;;;;5.10;4.33;;;20.20;99.90;;;;;;5039488;28;20959;-68
2023/07/28 07:36:42;;;;;;;5.93;4.17;;;20.20;99.90;;;;;;5039175;28;20478;-69
2023/07/28 07:39:09;;;;;;;5.30;3.67;;;20.20;99.90;;;;;;5040361;28;20442;-69
2023/07/28 07:41:35;;;;;;;13.70;4.77;;;20.20;99.90;;;;;;5041825;28;20473;-68
2023/07/28 07:44:02;;;;;;;5.50;4.57;;;20.30;99.90;;;;;;5040896;28;20813;-68
2023/07/28 07:46:30;;;;;;;4.97;4.60;;;20.40;99.90;;;;;;5039037;28;20502;-69
2023/07/28 07:48:57;;;;;;;6.73;4.63;;;20.40;99.90;;;;;;5040359;28;20474;-69
2023/07/28 07:51:24;;;;;;;5.47;4.30;;;20.50;99.90;;;;;;5043596;28;20466;-68
2023/07/28 07:53:53;;;;;;;4.40;4.03;;;20.50;99.90;;;;;;5047101;28;20457;-69
2023/07/28 07:56:22;;;;;;;6.30;4.83;;;20.40;99.90;;;;;;5048088;28;20810;-69
2023/07/28 07:58:48;;;;;;;8.90;4.03;;;20.40;99.90;;;;;;5047506;28;20457;-69
2023/07/28 08:01:15;;;;;;;4.70;4.10;;;20.40;99.90;;;;;;5053576;28;20466;-69
2023/07/28 08:03:44;;;;;;;4.67;3.60;;;20.50;99.90;;;;;;5057823;28;20469;-68
2023/07/28 08:06:12;;;;;;;4.50;3.63;;;20.40;99.90;;;;;;5049372;28;20454;-69
2023/07/28 08:08:42;;;;;;;4.13;3.60;;;20.50;99.90;;;;;;5047055;28;20454;-69
2023/07/28 08:11:08;;;;;;;3.87;3.03;;;20.50;99.90;;;;;;5044868;28;20474;-68
2023/07/28 08:13:35;;;;;;;4.10;3.03;;;20.50;99.90;;;;;;5044570;28;20450;-68
2023/07/28 08:16:02;;;;;;;3.27;2.97;;;20.60;99.90;;;;;;5043775;28;20919;-69
2023/07/28 08:18:30;;;;;;;4.00;3.70;;;20.60;99.90;;;;;;5051446;28;20454;-69
2023/07/28 08:20:58;;;;;;;16.77;4.17;;;20.80;99.90;;;;;;5047951;28;20459;-69
2023/07/28 08:23:26;;;;;;;4.27;3.40;;;20.80;99.90;;;;;;5047068;28;20505;-69
2023/07/28 08:25:53;;;;;;;4.93;2.97;;;20.90;99.90;;;;;;5044976;28;20940;-69
2023/07/28 08:28:20;;;;;;;6.20;3.50;;;21.00;99.90;;;;;;5042890;28;20455;-69
2023/07/28 08:30:56;;;;;;;5.53;3.60;;;21.10;99.90;;;;;;5042101;28;20490;-68
2023/07/28 08:33:24;;;;;;;4.07;3.77;;;21.10;99.90;;;;;;5042012;28;20430;-68
2023/07/28 08:35:51;;;;;;;5.57;3.50;;;21.10;99.90;;;;;;5041081;28;20521;-69
2023/07/28 08:38:19;;;;;;;6.20;3.30;;;21.20;99.90;;;;;;5043991;28;20450;-69
2023/07/28 08:40:46;;;;;;;4.37;2.90;;;21.30;99.90;;;;;;5046950;28;20470;-69
2023/07/28 08:43:12;;;;;;;4.90;2.50;;;21.40;99.90;;;;;;5042239;28;20454;-68
2023/07/28 08:45:41;;;;;;;2.43;2.30;;;21.50;99.90;;;;;;5041112;28;20474;-69
2023/07/28 08:48:08;;;;;;;4.73;2.57;;;21.70;99.90;;;;;;5040057;28;20454;-69
2023/07/28 08:50:36;;;;;;;2.70;2.47;;;21.90;99.90;;;;;;5039971;28;20490;-68
2023/07/28 08:53:04;;;;;;;4.43;2.70;;;22.00;99.90;;;;;;5039518;28;20461;-69
2023/07/28 08:55:32;;;;;;;2.87;2.67;;;22.20;99.90;;;;;;5039514;28;20442;-69
2023/07/28 08:58:15;;;;;;;3.00;2.80;;;22.30;99.90;;;;;;5039718;28;20450;-69
2023/07/28 09:00:43;;;;;;;2.00;1.90;;;22.40;99.90;;;;;;5038992;28;20459;-69
2023/07/28 09:03:11;;;;;;;3.50;2.40;;;22.50;99.90;;;;;;5038553;28;20537;-68
2023/07/28 09:05:40;;;;;;;2.87;2.67;;;22.60;99.90;;;;;;5038865;28;20506;-70
2023/07/28 09:08:07;;;;;;;2.63;2.53;;;22.70;99.90;;;;;;5039318;28;20451;-69
2023/07/28 09:10:48;;;;;;;4.47;2.13;;;22.90;99.90;;;;;;5039085;28;20482;-68
2023/07/28 09:13:17;;;;;;;2.60;2.37;;;22.90;99.90;;;;;;5037899;28;20835;-68
2023/07/28 09:15:44;;;;;;;2.27;1.90;;;22.80;99.90;;;;;;5038179;28;20509;-70
2023/07/28 09:18:16;;;;;;;4.37;2.20;;;22.90;99.90;;;;;;5038837;28;20454;-70
2023/07/28 09:20:43;;;;;;;4.53;2.43;;;23.00;99.90;;;;;;5038148;28;20474;-69
2023/07/28 09:23:11;;;;;;;2.50;1.97;;;23.00;99.90;;;;;;5038026;28;20541;-69
2023/07/28 09:25:40;;;;;;;4.73;1.93;;;22.90;99.90;;;;;;5038181;28;20824;-69
2023/07/28 09:28:10;;;;;;;4.87;2.13;;;23.00;99.90;;;;;;5036845;28;20876;-69
2023/07/28 09:30:50;;;;;;;1.90;1.80;;;23.10;99.90;;;;;;5037490;28;20478;-69
2023/07/28 09:33:31;;;;;;;3.00;2.20;;;23.40;99.90;;;;;;5036920;28;20474;-68
2023/07/28 09:35:58;;;;;;;3.67;2.43;;;23.60;99.90;;;;;;5037494;28;20457;-69
2023/07/28 09:38:29;;;;;;;1.97;1.87;;;23.70;99.90;;;;;;5037734;28;20470;-70
2023/07/28 09:40:58;;;;;;;1.87;1.77;;;24.00;99.90;;;;;;5036720;28;20474;-69
2023/07/28 09:43:27;;;;;;;1.83;1.67;;;24.40;99.90;;;;;;5036491;28;20450;-69
2023/07/28 09:45:55;;;;;;;1.40;1.30;;;24.70;99.20;;;;;;5036619;28;20522;-70
2023/07/28 09:48:33;;;;;;;2.40;1.20;;;24.70;97.40;;;;;;5036388;28;20454;-69
2023/07/28 09:51:04;;;;;;;2.73;1.60;;;24.90;97.20;;;;;;5036672;28;20497;-69
2023/07/28 09:53:37;;;;;;;1.80;1.70;;;24.90;96.70;;;;;;5039262;28;20471;-69
2023/07/28 09:56:05;;;;;;;1.37;1.27;;;24.80;96.30;;;;;;5048790;28;20463;-70
2023/07/28 09:58:42;;;;;;;1.17;1.07;;;24.70;96.70;;;;;;5046761;28;20459;-70
2023/07/28 10:01:15;;;;;;;2.27;0.97;;;24.70;96.50;;;;;;5045034;28;20473;-69
2023/07/28 10:03:44;;;;;;;1.10;1.00;;;24.60;97.50;;;;;;5043775;28;20430;-69
2023/07/28 10:06:10;;;;;;;1.10;0.93;;;24.80;97.90;;;;;;5043424;28;20455;-70
2023/07/28 10:08:40;;;;;;;1.43;0.80;;;24.90;96.70;;;;;;5040584;28;20454;-70
2023/07/28 10:11:07;;;;;;;1.13;1.03;;;24.90;97.50;;;;;;5041045;28;20493;-69
2023/07/28 10:13:43;;;;;;;2.83;1.00;;;25.20;96.80;;;;;;5040954;28;20457;-69
2023/07/28 10:16:12;;;;;;;1.60;1.40;;;25.20;95.70;;;;;;5042088;28;20454;-70
2023/07/28 10:18:40;;;;;;;3.03;1.10;;;25.30;96.10;;;;;;5053584;28;20458;-69
2023/07/28 10:21:13;;;;;;;1.40;1.30;;;25.30;96.00;;;;;;5045846;28;20544;-69
2023/07/28 10:23:40;;;;;;;1.40;1.30;;;25.10;96.30;;;;;;5043654;28;20430;-70
2023/07/28 10:26:07;;;;;;;2.37;1.47;;;25.10;96.80;;;;;;5039592;28;20470;-70
2023/07/28 10:28:38;;;;;;;1.37;1.17;;;25.10;96.90;;;;;;5040063;28;20454;-70
2023/07/28 10:31:10;;;;;;;1.17;1.07;;;25.10;96.10;;;;;;5039441;28;20490;-69
2023/07/28 10:33:39;;;;;;;1.20;1.10;;;25.30;96.50;;;;;;5038127;28;20447;-69
2023/07/28 10:36:37;;;;;;;2.80;1.00;;;25.30;95.00;;;;;;5038936;28;20500;-70
2023/07/28 10:39:14;;;;;;;1.30;1.20;;;25.40;95.00;;;;;;5038030;28;20429;-70
2023/07/28 10:42:06;;;;;;;0.90;0.90;;;25.30;95.40;;;;;;5037033;28;20569;-69
2023/07/28 10:44:42;;;;;;;1.60;0.90;;;25.40;93.80;;;;;;5037336;28;20870;-70
2023/07/28 10:47:11;;;;;;;1.03;0.90;;;25.50;94.40;;;;;;5039228;28;20513;-70
2023/07/28 10:49:38;;;;;;;2.43;1.30;;;25.80;94.20;;;;;;5038261;28;20881;-69
2023/07/28 10:52:05;;;;;;;3.30;1.10;;;26.30;93.10;;;;;;5039223;28;20450;-70
2023/07/28 10:54:32;;;;;;;1.60;1.00;;;26.90;90.80;;;;;;5043779;28;20442;-70
2023/07/28 10:57:02;;;;;;;1.20;1.10;;;27.10;88.10;;;;;;5041616;28;20454;-70
2023/07/28 10:59:30;;;;;;;1.43;1.33;;;27.50;87.50;;;;;;5040768;28;20442;-69
2023/07/28 11:01:57;;;;;;;1.60;1.50;;;27.50;87.20;;;;;;5039889;28;20438;-70
2023/07/28 11:04:25;;;;;;;1.00;0.90;;;27.40;85.60;;;;;;5039529;28;20457;-69
2023/07/28 11:06:52;;;;;;;2.93;1.27;;;27.40;87.30;;;;;;5042626;28;20952;-70
2023/07/28 11:09:24;;;;;;;1.50;1.00;;;27.50;90.10;;;;;;5040673;28;20453;-70
2023/07/28 11:11:52;;;;;;;1.47;1.37;;;28.30;90.50;;;;;;5042023;28;20493;-69
2023/07/28 11:14:20;;;;;;;1.13;1.03;;;29.40;85.30;;;;;;5047137;28;20823;-70
2023/07/28 11:16:48;;;;;;;1.20;1.10;;;30.40;77.20;;;;;;5049711;28;20454;-70
2023/07/28 11:19:16;;;;;;;1.73;1.20;;;31.10;70.40;;;;;;5047334;28;20940;-70
2023/07/28 11:21:50;;;;;;;2.60;1.37;;;31.90;69.80;;;;;;5043163;28;20462;-70
2023/07/28 11:24:19;;;;;;;0.87;0.80;;;31.70;61.40;;;;;;5041715;28;20545;-71
2023/07/28 11:26:47;;;;;;;1.63;1.10;;;31.90;62.40;;;;;;5040122;28;20449;-71
2023/07/28 11:29:14;;;;;;;1.30;1.20;;;32.60;59.20;;;;;;5038209;28;20460;-69
2023/07/28 11:31:43;;;;;;;2.13;1.00;;;32.70;58.20;;;;;;5038916;28;20505;-71
2023/07/28 11:34:14;;;;;;;2.07;0.90;;;32.70;56.30;;;;;;5039402;28;20454;-70
2023/07/28 11:36:42;;;;;;;0.90;0.90;;;31.70;57.00;;;;;;5037750;28;20847;-70
2023/07/28 11:39:15;;;;;;;1.10;1.00;;;31.50;56.90;;;;;;5038987;28;20453;-71
2023/07/28 11:41:43;;;;;;;2.33;0.93;;;31.30;59.20;;;;;;5021457;28;20470;-70
2023/07/28 11:44:10;;;;;;;0.80;0.77;;;31.40;57.20;;;;;;5038677;28;20446;-70
2023/07/28 11:46:41;;;;;;;1.53;0.90;;;30.80;58.80;;;;;;5038242;28;20946;-71
2023/07/28 11:49:11;;;;;;;1.63;0.93;;;30.20;62.50;;;;;;5038901;28;20462;-71
2023/07/28 11:51:39;;;;;;;2.70;0.83;;;29.50;64.60;;;;;;5038638;28;20486;-69
2023/07/28 11:54:07;;;;;;;2.87;0.90;;;28.80;66.20;;;;;;5038922;28;20808;-70
2023/07/28 11:56:35;;;;;;;1.23;0.80;;;28.20;69.20;;;;;;5038234;28;20477;-70
2023/07/28 11:59:04;;;;;;;3.23;0.80;;;27.90;72.90;;;;;;5038226;28;20454;-69
2023/07/28 12:01:32;;;;;;;0.80;0.80;;;27.90;75.20;;;;;;5038247;28;20466;-69
2023/07/28 12:04:00;;;;;;;1.73;0.90;;;27.90;76.40;;;;;;5037893;28;20859;-69
2023/07/28 12:06:28;;;;;;;0.90;0.70;;;27.80;73.80;;;;;;5036969;28;21010;-71
2023/07/28 12:09:08;;;;;;;1.07;0.80;;;27.50;74.10;;;;;;5037479;28;20500;-71
2023/07/28 12:11:43;;;;;;;0.67;0.67;;;27.40;76.80;;;;;;5038526;28;21011;-69
2023/07/28 12:14:13;;;;;;;0.70;0.70;;;27.20;76.50;;;;;;5038749;28;20448;-70
2023/07/28 12:16:41;;;;;;;2.97;0.90;;;26.90;79.40;;;;;;5037971;28;20861;-71
2023/07/28 12:19:09;;;;;;;2.03;0.83;;;26.70;81.20;;;;;;5037070;28;20505;-71
2023/07/28 12:21:37;;;;;;;0.80;0.77;;;26.60;83.40;;;;;;5037926;28;20469;-69
2023/07/28 12:24:04;;;;;;;0.83;0.83;;;27.10;83.40;;;;;;5036993;28;20461;-70
2023/07/28 12:26:31;;;;;;;1.60;0.67;;;27.60;80.10;;;;;;5038090;28;20446;-70
2023/07/28 12:29:00;;;;;;;1.50;1.10;;;27.90;79.40;;;;;;5039097;28;20489;-70
2023/07/28 12:31:27;;;;;;;1.60;1.03;;;28.00;78.00;;;;;;5055154;28;20853;-70
2023/07/28 12:33:54;;;;;;;0.97;0.77;;;27.90;77.90;;;;;;5049365;28;20455;-70
2023/07/28 12:36:22;;;;;;;3.47;1.10;;;27.70;79.30;;;;;;5044884;28;20956;-70
2023/07/28 12:38:49;;;;;;;1.33;1.30;;;27.40;80.50;;;;;;5041167;28;20466;-70
2023/07/28 12:41:16;;;;;;;6.17;1.27;;;26.90;81.50;;;;;;5039339;28;20475;-69
2023/07/28 12:43:43;;;;;;;4.07;1.90;;;26.50;84.30;;;;;;5037086;28;20458;-68
2023/07/28 12:46:11;;;;;;;2.07;1.20;;;26.00;89.80;;;;;;5037009;28;20447;-69
2023/07/28 12:48:39;;;;;;;4.23;1.10;;;25.60;92.00;;;;;;5036623;28;20458;-70
2023/07/28 12:51:05;;;;;;;1.43;1.07;;;25.20;93.20;;;;;;5038519;28;20490;-69
2023/07/28 12:53:32;;;;;;;2.03;1.10;;;24.90;95.30;;;;;;5039284;28;20837;-69